sensor_id;sensor_type;location;lat;lon;timestamp;temperature;humidity
75705;DHT22;70013;44.726;37.760;2023-07-09T00:00:45;25.76;78.82
75705;DHT22;70013;44.726;37.760;2023-07-09T00:01:48;25.77;78.87
75705;DHT22;70013;44.726;37.760;2023-07-09T00:02:50;25.76;78.69
75705;DHT22;70013;44.726;37.760;2023-07-09T00:03:51;25.75;78.85
75705;DHT22;70013;44.726;37.760;2023-07-09T00:04:54;25.77;78.84
75705;DHT22;70013;44.726;37.760;2023-07-09T00:05:56;25.76;78.85
75705;DHT22;70013;44.726;37.760;2023-07-09T00:06:58;25.78;78.82
75705;DHT22;70013;44.726;37.760;2023-07-09T00:08:01;25.76;78.72
75705;DHT22;70013;44.726;37.760;2023-07-09T00:09:03;25.74;78.94
75705;DHT22;70013;44.726;37.760;2023-07-09T00:10:12;25.74;78.85
75705;DHT22;70013;44.726;37.760;2023-07-09T00:11:15;25.75;78.63
75705;DHT22;70013;44.726;37.760;2023-07-09T00:12:17;25.75;78.66
75705;DHT22;70013;44.726;37.760;2023-07-09T00:13:18;25.73;79.04
75705;DHT22;70013;44.726;37.760;2023-07-09T00:14:20;25.75;78.91
75705;DHT22;70013;44.726;37.760;2023-07-09T00:15:21;25.74;78.49
75705;DHT22;70013;44.726;37.760;2023-07-09T00:16:24;25.76;78.72
75705;DHT22;70013;44.726;37.760;2023-07-09T00:17:26;25.76;78.71
75705;DHT22;70013;44.726;37.760;2023-07-09T00:18:28;25.74;78.84
75705;DHT22;70013;44.726;37.760;2023-07-09T00:19:30;25.74;78.80
75705;DHT22;70013;44.726;37.760;2023-07-09T00:20:31;25.74;78.70
75705;DHT22;70013;44.726;37.760;2023-07-09T00:21:32;25.74;78.64
75705;DHT22;70013;44.726;37.760;2023-07-09T00:22:35;25.73;78.67
75705;DHT22;70013;44.726;37.760;2023-07-09T00:23:36;25.76;78.43
75705;DHT22;70013;44.726;37.760;2023-07-09T00:24:42;25.72;78.32
75705;DHT22;70013;44.726;37.760;2023-07-09T00:25:45;25.73;78.13
75705;DHT22;70013;44.726;37.760;2023-07-09T00:26:47;25.74;78.01
75705;DHT22;70013;44.726;37.760;2023-07-09T00:27:50;25.76;77.97
75705;DHT22;70013;44.726;37.760;2023-07-09T00:28:52;25.71;78.01
75705;DHT22;70013;44.726;37.760;2023-07-09T00:29:53;25.73;77.95
75705;DHT22;70013;44.726;37.760;2023-07-09T00:30:55;25.72;77.99
75705;DHT22;70013;44.726;37.760;2023-07-09T00:31:56;25.72;78.08
75705;DHT22;70013;44.726;37.760;2023-07-09T00:32:58;25.69;77.84
75705;DHT22;70013;44.726;37.760;2023-07-09T00:33:59;25.68;77.98
75705;DHT22;70013;44.726;37.760;2023-07-09T00:35:01;25.69;78.08
75705;DHT22;70013;44.726;37.760;2023-07-09T00:36:14;25.72;77.92
75705;DHT22;70013;44.726;37.760;2023-07-09T00:37:16;25.75;77.85
75705;DHT22;70013;44.726;37.760;2023-07-09T00:38:19;25.75;77.70
75705;DHT22;70013;44.726;37.760;2023-07-09T00:39:23;25.77;77.55
75705;DHT22;70013;44.726;37.760;2023-07-09T00:40:26;25.79;77.56
75705;DHT22;70013;44.726;37.760;2023-07-09T00:41:34;25.80;77.41
75705;DHT22;70013;44.726;37.760;2023-07-09T00:42:36;25.80;77.54
75705;DHT22;70013;44.726;37.760;2023-07-09T00:43:38;25.82;77.59
75705;DHT22;70013;44.726;37.760;2023-07-09T00:44:44;25.87;77.33
75705;DHT22;70013;44.726;37.760;2023-07-09T00:46:06;25.86;77.47
75705;DHT22;70013;44.726;37.760;2023-07-09T00:48:28;25.86;77.58
75705;DHT22;70013;44.726;37.760;2023-07-09T00:49:33;25.86;77.59
75705;DHT22;70013;44.726;37.760;2023-07-09T00:50:37;25.82;77.92
75705;DHT22;70013;44.726;37.760;2023-07-09T00:51:46;25.80;77.95
75705;DHT22;70013;44.726;37.760;2023-07-09T00:53:29;25.79;78.03
75705;DHT22;70013;44.726;37.760;2023-07-09T00:54:17;25.82;77.95
75705;DHT22;70013;44.726;37.760;2023-07-09T00:55:22;25.83;77.99
75705;DHT22;70013;44.726;37.760;2023-07-09T00:56:33;25.79;78.09
75705;DHT22;70013;44.726;37.760;2023-07-09T00:57:38;25.79;78.16
75705;DHT22;70013;44.726;37.760;2023-07-09T00:58:42;25.77;78.40
75705;DHT22;70013;44.726;37.760;2023-07-09T00:59:49;25.78;78.27
75705;DHT22;70013;44.726;37.760;2023-07-09T01:00:53;25.79;78.47
75705;DHT22;70013;44.726;37.760;2023-07-09T01:01:56;25.80;78.37
75705;DHT22;70013;44.726;37.760;2023-07-09T01:02:58;25.80;78.28
75705;DHT22;70013;44.726;37.760;2023-07-09T01:04:00;25.82;78.41
75705;DHT22;70013;44.726;37.760;2023-07-09T01:05:02;25.83;78.20
75705;DHT22;70013;44.726;37.760;2023-07-09T01:06:05;25.90;78.25
75705;DHT22;70013;44.726;37.760;2023-07-09T01:07:07;25.91;78.12
75705;DHT22;70013;44.726;37.760;2023-07-09T01:08:09;25.92;78.34
75705;DHT22;70013;44.726;37.760;2023-07-09T01:09:11;25.90;79.44
75705;DHT22;70013;44.726;37.760;2023-07-09T01:10:14;25.91;79.51
75705;DHT22;70013;44.726;37.760;2023-07-09T01:11:17;25.90;79.71
75705;DHT22;70013;44.726;37.760;2023-07-09T01:12:22;25.93;79.69
75705;DHT22;70013;44.726;37.760;2023-07-09T01:13:24;25.97;79.37
75705;DHT22;70013;44.726;37.760;2023-07-09T01:14:27;25.99;79.47
75705;DHT22;70013;44.726;37.760;2023-07-09T01:15:28;26.05;79.19
75705;DHT22;70013;44.726;37.760;2023-07-09T01:16:32;26.02;79.62
75705;DHT22;70013;44.726;37.760;2023-07-09T01:17:35;26.03;79.33
75705;DHT22;70013;44.726;37.760;2023-07-09T01:18:38;26.05;79.42
75705;DHT22;70013;44.726;37.760;2023-07-09T01:19:41;26.04;79.49
75705;DHT22;70013;44.726;37.760;2023-07-09T01:20:45;26.05;79.52
75705;DHT22;70013;44.726;37.760;2023-07-09T01:21:47;26.05;79.27
75705;DHT22;70013;44.726;37.760;2023-07-09T01:22:49;26.08;79.13
75705;DHT22;70013;44.726;37.760;2023-07-09T01:23:51;26.10;79.04
75705;DHT22;70013;44.726;37.760;2023-07-09T01:25:56;26.13;78.68
75705;DHT22;70013;44.726;37.760;2023-07-09T01:26:57;26.17;78.40
75705;DHT22;70013;44.726;37.760;2023-07-09T01:27:59;26.17;78.81
75705;DHT22;70013;44.726;37.760;2023-07-09T01:29:01;26.13;79.13
75705;DHT22;70013;44.726;37.760;2023-07-09T01:30:06;26.11;78.78
75705;DHT22;70013;44.726;37.760;2023-07-09T01:31:08;26.12;78.85
75705;DHT22;70013;44.726;37.760;2023-07-09T01:32:09;26.16;78.57
75705;DHT22;70013;44.726;37.760;2023-07-09T01:33:11;26.15;78.22
75705;DHT22;70013;44.726;37.760;2023-07-09T01:34:12;26.12;77.86
75705;DHT22;70013;44.726;37.760;2023-07-09T01:35:17;26.10;77.72
75705;DHT22;70013;44.726;37.760;2023-07-09T01:36:20;26.08;77.69
75705;DHT22;70013;44.726;37.760;2023-07-09T01:37:26;26.03;77.81
75705;DHT22;70013;44.726;37.760;2023-07-09T01:38:28;26.07;77.48
75705;DHT22;70013;44.726;37.760;2023-07-09T01:39:32;26.08;77.25
75705;DHT22;70013;44.726;37.760;2023-07-09T01:40:34;26.09;77.08
75705;DHT22;70013;44.726;37.760;2023-07-09T01:41:36;26.12;76.76
75705;DHT22;70013;44.726;37.760;2023-07-09T01:42:38;26.13;76.63
75705;DHT22;70013;44.726;37.760;2023-07-09T01:43:41;26.16;76.63
75705;DHT22;70013;44.726;37.760;2023-07-09T01:44:43;26.17;76.73
75705;DHT22;70013;44.726;37.760;2023-07-09T01:45:46;26.19;76.40
75705;DHT22;70013;44.726;37.760;2023-07-09T01:46:51;26.22;76.33
75705;DHT22;70013;44.726;37.760;2023-07-09T01:47:54;26.24;76.38
75705;DHT22;70013;44.726;37.760;2023-07-09T01:48:56;26.26;76.32
75705;DHT22;70013;44.726;37.760;2023-07-09T01:49:57;26.24;76.02
75705;DHT22;70013;44.726;37.760;2023-07-09T01:51:02;26.23;76.47
75705;DHT22;70013;44.726;37.760;2023-07-09T01:52:04;26.26;75.95
75705;DHT22;70013;44.726;37.760;2023-07-09T01:53:05;26.24;76.11
75705;DHT22;70013;44.726;37.760;2023-07-09T01:54:09;26.27;76.12
75705;DHT22;70013;44.726;37.760;2023-07-09T01:55:11;26.31;75.99
75705;DHT22;70013;44.726;37.760;2023-07-09T01:56:13;26.31;75.41
75705;DHT22;70013;44.726;37.760;2023-07-09T01:57:16;26.33;75.71
75705;DHT22;70013;44.726;37.760;2023-07-09T01:58:20;26.37;75.57
75705;DHT22;70013;44.726;37.760;2023-07-09T01:59:26;26.41;75.36
75705;DHT22;70013;44.726;37.760;2023-07-09T02:00:28;26.45;75.17
75705;DHT22;70013;44.726;37.760;2023-07-09T02:01:30;26.48;75.21
75705;DHT22;70013;44.726;37.760;2023-07-09T02:02:31;26.52;74.90
75705;DHT22;70013;44.726;37.760;2023-07-09T02:03:33;26.54;74.95
75705;DHT22;70013;44.726;37.760;2023-07-09T02:04:35;26.56;74.79
75705;DHT22;70013;44.726;37.760;2023-07-09T02:05:36;26.56;74.85
75705;DHT22;70013;44.726;37.760;2023-07-09T02:06:38;26.60;74.60
75705;DHT22;70013;44.726;37.760;2023-07-09T02:07:40;26.62;74.44
75705;DHT22;70013;44.726;37.760;2023-07-09T02:08:41;26.63;74.47
75705;DHT22;70013;44.726;37.760;2023-07-09T02:09:43;26.60;74.54
75705;DHT22;70013;44.726;37.760;2023-07-09T02:10:48;26.63;74.55
75705;DHT22;70013;44.726;37.760;2023-07-09T02:11:50;26.64;74.54
75705;DHT22;70013;44.726;37.760;2023-07-09T02:12:51;26.65;74.52
75705;DHT22;70013;44.726;37.760;2023-07-09T02:13:53;26.63;74.50
75705;DHT22;70013;44.726;37.760;2023-07-09T02:14:54;26.65;74.48
75705;DHT22;70013;44.726;37.760;2023-07-09T02:15:56;26.66;74.29
75705;DHT22;70013;44.726;37.760;2023-07-09T02:16:57;26.67;74.45
75705;DHT22;70013;44.726;37.760;2023-07-09T02:17:59;26.65;74.64
75705;DHT22;70013;44.726;37.760;2023-07-09T02:19:02;26.66;74.44
75705;DHT22;70013;44.726;37.760;2023-07-09T02:20:04;26.68;74.35
75705;DHT22;70013;44.726;37.760;2023-07-09T02:21:07;26.64;74.13
75705;DHT22;70013;44.726;37.760;2023-07-09T02:22:09;26.67;74.06
75705;DHT22;70013;44.726;37.760;2023-07-09T02:23:11;26.71;74.08
75705;DHT22;70013;44.726;37.760;2023-07-09T02:24:13;26.73;74.06
75705;DHT22;70013;44.726;37.760;2023-07-09T02:25:16;26.76;73.77
75705;DHT22;70013;44.726;37.760;2023-07-09T02:26:18;26.76;73.80
75705;DHT22;70013;44.726;37.760;2023-07-09T02:27:20;26.79;73.61
75705;DHT22;70013;44.726;37.760;2023-07-09T02:28:22;26.78;73.44
75705;DHT22;70013;44.726;37.760;2023-07-09T02:29:25;26.78;73.34
75705;DHT22;70013;44.726;37.760;2023-07-09T02:30:27;26.77;73.24
75705;DHT22;70013;44.726;37.760;2023-07-09T02:31:28;26.80;73.07
75705;DHT22;70013;44.726;37.760;2023-07-09T02:32:31;26.82;73.22
75705;DHT22;70013;44.726;37.760;2023-07-09T02:33:32;26.82;72.59
75705;DHT22;70013;44.726;37.760;2023-07-09T02:34:35;26.85;72.46
75705;DHT22;70013;44.726;37.760;2023-07-09T02:35:36;26.86;72.17
75705;DHT22;70013;44.726;37.760;2023-07-09T02:36:38;26.85;72.24
75705;DHT22;70013;44.726;37.760;2023-07-09T02:37:44;26.84;71.94
75705;DHT22;70013;44.726;37.760;2023-07-09T02:38:46;26.85;72.54
75705;DHT22;70013;44.726;37.760;2023-07-09T02:39:47;26.86;71.95
75705;DHT22;70013;44.726;37.760;2023-07-09T02:40:49;26.85;71.92
75705;DHT22;70013;44.726;37.760;2023-07-09T02:41:50;26.86;71.65
75705;DHT22;70013;44.726;37.760;2023-07-09T02:42:52;26.80;71.76
75705;DHT22;70013;44.726;37.760;2023-07-09T02:43:54;26.85;71.74
75705;DHT22;70013;44.726;37.760;2023-07-09T02:44:55;26.86;71.42
75705;DHT22;70013;44.726;37.760;2023-07-09T02:46:00;26.85;71.51
75705;DHT22;70013;44.726;37.760;2023-07-09T02:47:01;26.82;71.73
75705;DHT22;70013;44.726;37.760;2023-07-09T02:48:03;26.85;71.16
75705;DHT22;70013;44.726;37.760;2023-07-09T02:49:11;26.81;71.33
75705;DHT22;70013;44.726;37.760;2023-07-09T02:50:13;26.82;71.19
75705;DHT22;70013;44.726;37.760;2023-07-09T02:51:14;26.82;71.35
75705;DHT22;70013;44.726;37.760;2023-07-09T02:52:15;26.85;71.23
75705;DHT22;70013;44.726;37.760;2023-07-09T02:53:17;26.81;71.25
75705;DHT22;70013;44.726;37.760;2023-07-09T02:54:18;26.84;71.19
75705;DHT22;70013;44.726;37.760;2023-07-09T02:55:20;26.87;71.26
75705;DHT22;70013;44.726;37.760;2023-07-09T02:56:21;26.76;71.36
75705;DHT22;70013;44.726;37.760;2023-07-09T02:57:23;26.81;71.22
75705;DHT22;70013;44.726;37.760;2023-07-09T02:58:24;26.79;71.16
75705;DHT22;70013;44.726;37.760;2023-07-09T02:59:26;26.71;70.35
75705;DHT22;70013;44.726;37.760;2023-07-09T03:00:30;26.71;71.08
75705;DHT22;70013;44.726;37.760;2023-07-09T03:01:32;26.75;71.06
75705;DHT22;70013;44.726;37.760;2023-07-09T03:02:35;26.82;70.87
75705;DHT22;70013;44.726;37.760;2023-07-09T03:03:37;26.89;70.89
75705;DHT22;70013;44.726;37.760;2023-07-09T03:04:38;26.84;70.67
75705;DHT22;70013;44.726;37.760;2023-07-09T03:05:40;26.86;70.86
75705;DHT22;70013;44.726;37.760;2023-07-09T03:06:41;26.95;70.67
75705;DHT22;70013;44.726;37.760;2023-07-09T03:07:43;26.93;69.74
75705;DHT22;70013;44.726;37.760;2023-07-09T03:08:44;26.95;70.46
75705;DHT22;70013;44.726;37.760;2023-07-09T03:09:46;27.00;70.13
75705;DHT22;70013;44.726;37.760;2023-07-09T03:10:47;27.07;69.98
75705;DHT22;70013;44.726;37.760;2023-07-09T03:11:49;27.15;69.69
75705;DHT22;70013;44.726;37.760;2023-07-09T03:12:50;27.22;69.53
75705;DHT22;70013;44.726;37.760;2023-07-09T03:13:51;27.30;69.30
75705;DHT22;70013;44.726;37.760;2023-07-09T03:14:54;27.34;69.41
75705;DHT22;70013;44.726;37.760;2023-07-09T03:15:55;27.42;69.12
75705;DHT22;70013;44.726;37.760;2023-07-09T03:16:57;27.43;69.17
75705;DHT22;70013;44.726;37.760;2023-07-09T03:17:59;27.42;68.54
75705;DHT22;70013;44.726;37.760;2023-07-09T03:19:00;27.47;68.82
75705;DHT22;70013;44.726;37.760;2023-07-09T03:20:02;27.52;68.44
75705;DHT22;70013;44.726;37.760;2023-07-09T03:21:03;27.50;68.02
75705;DHT22;70013;44.726;37.760;2023-07-09T03:22:06;27.51;68.45
75705;DHT22;70013;44.726;37.760;2023-07-09T03:23:08;27.55;68.30
75705;DHT22;70013;44.726;37.760;2023-07-09T03:24:09;27.44;66.95
75705;DHT22;70013;44.726;37.760;2023-07-09T03:25:11;27.34;67.75
75705;DHT22;70013;44.726;37.760;2023-07-09T03:26:13;27.25;68.03
75705;DHT22;70013;44.726;37.760;2023-07-09T03:27:14;27.24;67.78
75705;DHT22;70013;44.726;37.760;2023-07-09T03:28:16;27.24;68.02
75705;DHT22;70013;44.726;37.760;2023-07-09T03:29:17;27.27;68.08
75705;DHT22;70013;44.726;37.760;2023-07-09T03:30:19;27.26;67.81
75705;DHT22;70013;44.726;37.760;2023-07-09T03:31:21;27.26;68.17
75705;DHT22;70013;44.726;37.760;2023-07-09T03:32:22;27.31;68.17
75705;DHT22;70013;44.726;37.760;2023-07-09T03:33:24;27.39;67.87
75705;DHT22;70013;44.726;37.760;2023-07-09T03:34:26;27.28;67.71
75705;DHT22;70013;44.726;37.760;2023-07-09T03:35:27;27.31;68.36
75705;DHT22;70013;44.726;37.760;2023-07-09T03:36:29;27.37;67.88
75705;DHT22;70013;44.726;37.760;2023-07-09T03:37:31;27.37;68.33
75705;DHT22;70013;44.726;37.760;2023-07-09T03:38:33;27.40;68.39
75705;DHT22;70013;44.726;37.760;2023-07-09T03:39:35;27.44;68.03
75705;DHT22;70013;44.726;37.760;2023-07-09T03:40:37;27.49;66.78
75705;DHT22;70013;44.726;37.760;2023-07-09T03:41:39;27.51;66.82
75705;DHT22;70013;44.726;37.760;2023-07-09T03:42:40;27.57;66.69
75705;DHT22;70013;44.726;37.760;2023-07-09T03:43:42;27.66;67.17
75705;DHT22;70013;44.726;37.760;2023-07-09T03:44:44;27.76;66.88
75705;DHT22;70013;44.726;37.760;2023-07-09T03:45:46;27.86;66.93
75705;DHT22;70013;44.726;37.760;2023-07-09T03:46:47;27.94;67.01
75705;DHT22;70013;44.726;37.760;2023-07-09T03:47:49;28.05;66.59
75705;DHT22;70013;44.726;37.760;2023-07-09T03:48:51;28.15;66.38
75705;DHT22;70013;44.726;37.760;2023-07-09T03:49:52;28.21;66.39
75705;DHT22;70013;44.726;37.760;2023-07-09T03:50:54;28.28;65.86
75705;DHT22;70013;44.726;37.760;2023-07-09T03:51:55;28.37;65.49
75705;DHT22;70013;44.726;37.760;2023-07-09T03:52:57;28.38;65.03
75705;DHT22;70013;44.726;37.760;2023-07-09T03:53:59;28.38;64.76
75705;DHT22;70013;44.726;37.760;2023-07-09T03:55:00;28.37;65.08
75705;DHT22;70013;44.726;37.760;2023-07-09T03:56:03;28.30;63.58
75705;DHT22;70013;44.726;37.760;2023-07-09T03:57:04;28.35;65.23
75705;DHT22;70013;44.726;37.760;2023-07-09T03:58:07;28.42;64.72
75705;DHT22;70013;44.726;37.760;2023-07-09T03:59:09;28.45;64.10
75705;DHT22;70013;44.726;37.760;2023-07-09T04:00:10;28.49;63.84
75705;DHT22;70013;44.726;37.760;2023-07-09T04:01:19;28.50;63.56
75705;DHT22;70013;44.726;37.760;2023-07-09T04:02:20;28.33;63.74
75705;DHT22;70013;44.726;37.760;2023-07-09T04:03:22;28.31;64.28
75705;DHT22;70013;44.726;37.760;2023-07-09T04:04:23;28.37;64.78
75705;DHT22;70013;44.726;37.760;2023-07-09T04:05:25;28.42;63.44
75705;DHT22;70013;44.726;37.760;2023-07-09T04:06:27;28.42;64.29
75705;DHT22;70013;44.726;37.760;2023-07-09T04:07:28;28.48;64.34
75705;DHT22;70013;44.726;37.760;2023-07-09T04:08:30;28.53;64.82
75705;DHT22;70013;44.726;37.760;2023-07-09T04:09:31;28.46;63.22
75705;DHT22;70013;44.726;37.760;2023-07-09T04:10:33;28.48;64.12
75705;DHT22;70013;44.726;37.760;2023-07-09T04:11:34;28.44;62.78
75705;DHT22;70013;44.726;37.760;2023-07-09T04:12:36;28.44;63.39
75705;DHT22;70013;44.726;37.760;2023-07-09T04:13:37;28.48;63.62
75705;DHT22;70013;44.726;37.760;2023-07-09T04:14:39;28.52;63.26
75705;DHT22;70013;44.726;37.760;2023-07-09T04:15:41;28.49;63.34
75705;DHT22;70013;44.726;37.760;2023-07-09T04:16:43;28.58;62.92
75705;DHT22;70013;44.726;37.760;2023-07-09T04:17:44;28.63;62.86
75705;DHT22;70013;44.726;37.760;2023-07-09T04:18:46;28.35;63.92
75705;DHT22;70013;44.726;37.760;2023-07-09T04:19:47;28.34;64.00
75705;DHT22;70013;44.726;37.760;2023-07-09T04:20:49;28.46;64.21
75705;DHT22;70013;44.726;37.760;2023-07-09T04:21:51;28.59;63.80
75705;DHT22;70013;44.726;37.760;2023-07-09T04:22:53;28.57;63.73
75705;DHT22;70013;44.726;37.760;2023-07-09T04:23:54;28.54;64.19
75705;DHT22;70013;44.726;37.760;2023-07-09T04:24:56;28.65;63.66
75705;DHT22;70013;44.726;37.760;2023-07-09T04:25:58;28.72;63.57
75705;DHT22;70013;44.726;37.760;2023-07-09T04:27:05;28.85;63.54
75705;DHT22;70013;44.726;37.760;2023-07-09T04:28:06;28.91;63.50
75705;DHT22;70013;44.726;37.760;2023-07-09T04:29:08;28.97;62.92
75705;DHT22;70013;44.726;37.760;2023-07-09T04:30:11;28.84;62.05
75705;DHT22;70013;44.726;37.760;2023-07-09T04:31:13;28.74;63.42
75705;DHT22;70013;44.726;37.760;2023-07-09T04:32:15;28.87;63.17
75705;DHT22;70013;44.726;37.760;2023-07-09T04:33:17;28.85;62.93
75705;DHT22;70013;44.726;37.760;2023-07-09T04:34:18;28.93;62.95
75705;DHT22;70013;44.726;37.760;2023-07-09T04:35:20;28.92;62.82
75705;DHT22;70013;44.726;37.760;2023-07-09T04:36:21;28.91;62.68
75705;DHT22;70013;44.726;37.760;2023-07-09T04:37:23;29.02;62.87
75705;DHT22;70013;44.726;37.760;2023-07-09T04:38:24;28.83;61.73
75705;DHT22;70013;44.726;37.760;2023-07-09T04:39:25;28.69;62.89
75705;DHT22;70013;44.726;37.760;2023-07-09T04:40:27;28.69;62.64
75705;DHT22;70013;44.726;37.760;2023-07-09T04:41:28;28.84;62.61
75705;DHT22;70013;44.726;37.760;2023-07-09T04:42:30;28.98;62.09
75705;DHT22;70013;44.726;37.760;2023-07-09T04:43:31;29.03;61.93
75705;DHT22;70013;44.726;37.760;2023-07-09T04:44:33;29.19;61.15
75705;DHT22;70013;44.726;37.760;2023-07-09T04:45:34;29.29;60.08
75705;DHT22;70013;44.726;37.760;2023-07-09T04:46:36;29.34;60.17
75705;DHT22;70013;44.726;37.760;2023-07-09T04:47:39;29.53;59.74
75705;DHT22;70013;44.726;37.760;2023-07-09T04:48:40;29.64;59.65
75705;DHT22;70013;44.726;37.760;2023-07-09T04:49:42;29.76;58.45
75705;DHT22;70013;44.726;37.760;2023-07-09T04:50:43;29.79;58.96
75705;DHT22;70013;44.726;37.760;2023-07-09T04:51:45;29.78;58.54
75705;DHT22;70013;44.726;37.760;2023-07-09T04:52:46;29.79;58.32
75705;DHT22;70013;44.726;37.760;2023-07-09T04:53:48;29.87;58.30
75705;DHT22;70013;44.726;37.760;2023-07-09T04:54:52;29.80;58.77
75705;DHT22;70013;44.726;37.760;2023-07-09T04:55:54;29.98;58.04
75705;DHT22;70013;44.726;37.760;2023-07-09T04:56:56;29.93;58.16
75705;DHT22;70013;44.726;37.760;2023-07-09T04:57:58;29.98;57.32
75705;DHT22;70013;44.726;37.760;2023-07-09T04:58:59;29.74;57.88
75705;DHT22;70013;44.726;37.760;2023-07-09T05:00:01;29.48;59.28
75705;DHT22;70013;44.726;37.760;2023-07-09T05:01:03;29.44;59.25
75705;DHT22;70013;44.726;37.760;2023-07-09T05:02:04;29.41;59.76
75705;DHT22;70013;44.726;37.760;2023-07-09T05:03:07;29.49;60.30
75705;DHT22;70013;44.726;37.760;2023-07-09T05:04:08;29.60;59.53
75705;DHT22;70013;44.726;37.760;2023-07-09T05:05:10;29.46;59.85
75705;DHT22;70013;44.726;37.760;2023-07-09T05:06:13;29.45;59.82
75705;DHT22;70013;44.726;37.760;2023-07-09T05:07:14;29.35;59.67
75705;DHT22;70013;44.726;37.760;2023-07-09T05:08:16;29.19;60.43
75705;DHT22;70013;44.726;37.760;2023-07-09T05:09:19;29.23;60.75
75705;DHT22;70013;44.726;37.760;2023-07-09T05:10:20;29.33;59.92
75705;DHT22;70013;44.726;37.760;2023-07-09T05:11:22;29.37;59.48
75705;DHT22;70013;44.726;37.760;2023-07-09T05:12:25;29.45;59.77
75705;DHT22;70013;44.726;37.760;2023-07-09T05:13:27;29.51;59.47
75705;DHT22;70013;44.726;37.760;2023-07-09T05:14:29;29.67;59.62
75705;DHT22;70013;44.726;37.760;2023-07-09T05:15:30;29.83;57.90
75705;DHT22;70013;44.726;37.760;2023-07-09T05:16:32;29.62;58.70
75705;DHT22;70013;44.726;37.760;2023-07-09T05:17:33;29.64;58.85
75705;DHT22;70013;44.726;37.760;2023-07-09T05:18:35;29.50;58.77
75705;DHT22;70013;44.726;37.760;2023-07-09T05:19:37;29.54;59.14
75705;DHT22;70013;44.726;37.760;2023-07-09T05:20:39;29.58;58.97
75705;DHT22;70013;44.726;37.760;2023-07-09T05:21:40;29.73;58.54
75705;DHT22;70013;44.726;37.760;2023-07-09T05:22:42;29.89;58.04
75705;DHT22;70013;44.726;37.760;2023-07-09T05:23:43;29.97;57.74
75705;DHT22;70013;44.726;37.760;2023-07-09T05:24:45;30.12;57.40
75705;DHT22;70013;44.726;37.760;2023-07-09T05:25:46;30.27;56.58
75705;DHT22;70013;44.726;37.760;2023-07-09T05:26:48;30.23;56.10
75705;DHT22;70013;44.726;37.760;2023-07-09T05:27:49;30.33;56.13
75705;DHT22;70013;44.726;37.760;2023-07-09T05:28:52;30.36;55.49
75705;DHT22;70013;44.726;37.760;2023-07-09T05:29:53;30.33;56.32
75705;DHT22;70013;44.726;37.760;2023-07-09T05:30:55;30.44;55.48
75705;DHT22;70013;44.726;37.760;2023-07-09T05:31:58;30.46;56.39
75705;DHT22;70013;44.726;37.760;2023-07-09T05:33:00;30.50;55.19
75705;DHT22;70013;44.726;37.760;2023-07-09T05:34:01;30.56;55.94
75705;DHT22;70013;44.726;37.760;2023-07-09T05:35:03;30.87;54.84
75705;DHT22;70013;44.726;37.760;2023-07-09T05:36:05;31.15;54.56
75705;DHT22;70013;44.726;37.760;2023-07-09T05:37:06;31.41;52.65
75705;DHT22;70013;44.726;37.760;2023-07-09T05:38:08;30.89;54.35
75705;DHT22;70013;44.726;37.760;2023-07-09T05:39:09;30.92;53.85
75705;DHT22;70013;44.726;37.760;2023-07-09T05:40:11;30.86;54.45
75705;DHT22;70013;44.726;37.760;2023-07-09T05:41:12;30.82;55.29
75705;DHT22;70013;44.726;37.760;2023-07-09T05:42:14;30.69;55.45
75705;DHT22;70013;44.726;37.760;2023-07-09T05:43:15;30.82;55.53
75705;DHT22;70013;44.726;37.760;2023-07-09T05:44:17;31.15;55.02
75705;DHT22;70013;44.726;37.760;2023-07-09T05:45:19;31.25;53.84
75705;DHT22;70013;44.726;37.760;2023-07-09T05:46:22;31.40;53.79
75705;DHT22;70013;44.726;37.760;2023-07-09T05:47:24;31.40;52.53
75705;DHT22;70013;44.726;37.760;2023-07-09T05:48:25;31.35;53.36
75705;DHT22;70013;44.726;37.760;2023-07-09T05:49:27;31.29;54.08
75705;DHT22;70013;44.726;37.760;2023-07-09T05:50:28;31.41;54.57
75705;DHT22;70013;44.726;37.760;2023-07-09T05:51:34;31.54;52.91
75705;DHT22;70013;44.726;37.760;2023-07-09T05:52:35;31.54;54.13
75705;DHT22;70013;44.726;37.760;2023-07-09T05:53:36;31.31;53.29
75705;DHT22;70013;44.726;37.760;2023-07-09T05:54:38;31.36;54.29
75705;DHT22;70013;44.726;37.760;2023-07-09T05:55:40;31.28;53.70
75705;DHT22;70013;44.726;37.760;2023-07-09T05:56:42;31.02;54.46
75705;DHT22;70013;44.726;37.760;2023-07-09T05:57:44;31.16;55.55
75705;DHT22;70013;44.726;37.760;2023-07-09T05:58:45;31.21;54.86
75705;DHT22;70013;44.726;37.760;2023-07-09T05:59:49;31.28;53.82
75705;DHT22;70013;44.726;37.760;2023-07-09T06:00:51;31.15;54.04
75705;DHT22;70013;44.726;37.760;2023-07-09T06:01:55;31.01;54.86
75705;DHT22;70013;44.726;37.760;2023-07-09T06:02:56;31.15;54.56
75705;DHT22;70013;44.726;37.760;2023-07-09T06:03:58;31.14;54.04
75705;DHT22;70013;44.726;37.760;2023-07-09T06:05:00;31.04;54.21
75705;DHT22;70013;44.726;37.760;2023-07-09T06:06:01;31.02;53.58
75705;DHT22;70013;44.726;37.760;2023-07-09T06:07:03;30.78;54.33
75705;DHT22;70013;44.726;37.760;2023-07-09T06:08:05;30.86;54.36
75705;DHT22;70013;44.726;37.760;2023-07-09T06:09:07;31.02;53.93
75705;DHT22;70013;44.726;37.760;2023-07-09T06:10:09;31.05;53.72
75705;DHT22;70013;44.726;37.760;2023-07-09T06:11:10;31.04;53.96
75705;DHT22;70013;44.726;37.760;2023-07-09T06:12:13;31.11;54.06
75705;DHT22;70013;44.726;37.760;2023-07-09T06:13:14;30.98;54.20
75705;DHT22;70013;44.726;37.760;2023-07-09T06:14:15;30.71;55.09
75705;DHT22;70013;44.726;37.760;2023-07-09T06:15:18;30.77;55.05
75705;DHT22;70013;44.726;37.760;2023-07-09T06:16:20;30.59;55.77
75705;DHT22;70013;44.726;37.760;2023-07-09T06:17:21;30.48;55.94
75705;DHT22;70013;44.726;37.760;2023-07-09T06:18:23;30.54;56.18
75705;DHT22;70013;44.726;37.760;2023-07-09T06:19:25;30.57;56.42
75705;DHT22;70013;44.726;37.760;2023-07-09T06:20:27;30.51;56.00
75705;DHT22;70013;44.726;37.760;2023-07-09T06:21:29;30.42;56.34
75705;DHT22;70013;44.726;37.760;2023-07-09T06:22:30;30.40;56.81
75705;DHT22;70013;44.726;37.760;2023-07-09T06:23:32;30.45;56.19
75705;DHT22;70013;44.726;37.760;2023-07-09T06:24:34;30.33;56.94
75705;DHT22;70013;44.726;37.760;2023-07-09T06:25:37;30.13;57.37
75705;DHT22;70013;44.726;37.760;2023-07-09T06:26:39;30.02;57.53
75705;DHT22;70013;44.726;37.760;2023-07-09T06:27:41;29.88;58.01
75705;DHT22;70013;44.726;37.760;2023-07-09T06:28:42;29.87;58.35
75705;DHT22;70013;44.726;37.760;2023-07-09T06:29:44;29.96;58.05